Poplar Bluff, MO

10:31 AM CDT on August 25, 2016 (GMT -0500)
Poplar Bluff Municipal | | Change Station

Elev 328 ft 36.77 °N, 90.32 °W | Updated 38 minutes ago

Clear
Clear
84 °F
Feels Like 93 °F
N
7
Wind Variable Wind from SW

Today
High -- | Low -- °F
--% Chance of Precip.
Yesterday
High -- | Low -- °F
Precip. -- in
Pressure 30.09 in
Visibility 10.0 miles
Clouds Clear
Heat Index 93 °F
Dew Point 76 °F
Humidity 76%
Rainfall 0.00 in
Snow Depth Not available.
6:27 AM 7:38 PM
Last Quarter, 44% visible
METAR KPOF 251453Z AUTO 22006KT 10SM CLR 29/24 A3011 RMK AO2 SLP189 T02890244 53002 TSNO
Pressure 30.09 in
Visibility 10.0 miles
Clouds Clear
Heat Index 93 °F
Dew Point 76 °F
Humidity 76%
Rainfall 0.00 in
Snow Depth Not available.
6:27 AM 7:38 PM
Last Quarter, 44% visible
METAR KPOF 251453Z AUTO 22006KT 10SM CLR 29/24 A3011 RMK AO2 SLP189 T02890244 53002 TSNO

10-Day Weather Forecast

Almanac

Astronomy

Aug. 25, 2016 Rise Set
Actual Time
Civil Twilight
Nautical Twilight
Astronomical Twilight
Moon
Length of Visible Light
Length of Day
Tomorrow will be .
, % of the Moon is Illuminated

Today's Extremes

State Highs State Lows

Community

WunderPhotos

Upload Photos

1,934,864 photos uploaded!

WunderBlog® & News

Nearby

Air Quality

  Air Quality AQ Index Pollutant
Not available.

Snow Depth

Station Depth Elevation

Earthquake Activity

City Distance Mag. Time & Date
Minimum magnitude displayed is 2.5.

Coastal Water Temperatures

Place Temperature

Stations

Nearby Weather Stations

Station Location Temp. Windchill Dew Point Humidity Wind Precip. Elev Updated Type
                   

Watches & Warnings

There are currently no watches in effect.